Map

Track Data

SID SEASON NUMBER BASIN SUBBASIN NAME ISO_TIME NATURE LAT LON WMO_WIND WMO_PRES WMO_AGENCY TRACK_TYPE DIST2LAND LANDFALL IFLAG USA_AGENCY USA_ATCF_ID USA_LAT USA_LON USA_RECORD USA_STATUS USA_WIND USA_PRES USA_SSHS USA_R34_NE USA_R34_SE USA_R34_SW USA_R34_NW USA_R50_NE USA_R50_SE USA_R50_SW USA_R50_NW USA_R64_NE USA_R64_SE USA_R64_SW USA_R64_NW USA_POCI USA_ROCI USA_RMW USA_EYE TOKYO_LAT TOKYO_LON TOKYO_GRADE TOKYO_WIND TOKYO_PRES TOKYO_R50_DIR TOKYO_R50_LONG TOKYO_R50_SHORT TOKYO_R30_DIR TOKYO_R30_LONG TOKYO_R30_SHORT TOKYO_LAND CMA_LAT CMA_LON CMA_CAT CMA_WIND CMA_PRES HKO_LAT HKO_LON HKO_CAT HKO_WIND HKO_PRES NEWDELHI_LAT NEWDELHI_LON NEWDELHI_GRADE NEWDELHI_WIND NEWDELHI_PRES NEWDELHI_CI NEWDELHI_DP NEWDELHI_POCI REUNION_LAT REUNION_LON REUNION_TYPE REUNION_WIND REUNION_PRES REUNION_TNUM REUNION_CI REUNION_RMW REUNION_R34_NE REUNION_R34_SE REUNION_R34_SW REUNION_R34_NW REUNION_R50_NE REUNION_R50_SE REUNION_R50_SW REUNION_R50_NW REUNION_R64_NE REUNION_R64_SE REUNION_R64_SW REUNION_R64_NW BOM_LAT BOM_LON BOM_TYPE BOM_WIND BOM_PRES BOM_TNUM BOM_CI BOM_RMW BOM_R34_NE BOM_R34_SE BOM_R34_SW BOM_R34_NW BOM_R50_NE BOM_R50_SE BOM_R50_SW BOM_R50_NW BOM_R64_NE BOM_R64_SE BOM_R64_SW BOM_R64_NW BOM_ROCI BOM_POCI BOM_EYE BOM_POS_METHOD BOM_PRES_METHOD NADI_LAT NADI_LON NADI_CAT NADI_WIND NADI_PRES WELLINGTON_LAT WELLINGTON_LON WELLINGTON_WIND WELLINGTON_PRES DS824_LAT DS824_LON DS824_STAGE DS824_WIND DS824_PRES TD9636_LAT TD9636_LON TD9636_STAGE TD9636_WIND TD9636_PRES TD9635_LAT TD9635_LON TD9635_WIND TD9635_PRES TD9635_ROCI NEUMANN_LAT NEUMANN_LON NEUMANN_CLASS NEUMANN_WIND NEUMANN_PRES MLC_LAT MLC_LON MLC_CLASS MLC_WIND MLC_PRES USA_GUST BOM_GUST BOM_GUST_PER REUNION_GUST REUNION_GUST_PER USA_SEAHGT USA_SEARAD_NE USA_SEARAD_SE USA_SEARAD_SW USA_SEARAD_NW STORM_SPEED STORM_DIR
1904228N20124 1904 27 WP MM NOT_NAMED 1904-08-14 16:00:00 NR 19.8000 124.300 main 262 262 __________O___ -1 19.8000 124.300 4 9 351
1904228N20124 1904 27 WP MM NOT_NAMED 1904-08-14 18:00:00 NR 20.0871 124.252 main 283 275 __________P___ -1 20.0871 124.252 4 9 351
1904228N20124 1904 27 WP MM NOT_NAMED 1904-08-14 21:00:00 NR 20.5225 124.180 main 307 307 __________P___ -1 20.5225 124.180 4 9 351
1904228N20124 1904 27 WP MM NOT_NAMED 1904-08-15 00:00:00 NR 20.9704 124.105 main 346 325 __________P___ -1 20.9704 124.105 4 9 351
1904228N20124 1904 27 WP MM NOT_NAMED 1904-08-15 03:00:00 NR 21.4383 124.027 main 325 315 __________P___ -1 21.4383 124.027 4 10 351
1904228N20124 1904 27 WP MM NOT_NAMED 1904-08-15 04:00:00 NR 21.6000 124.000 main 315 289 __________O___ -1 21.6000 124.000 4 10 351
1904228N20124 1904 27 WP MM NOT_NAMED 1904-08-15 06:00:00 NR 21.9329 123.945 main 289 264 __________P___ -1 21.9329 123.945 4 10 352
1904228N20124 1904 27 WP MM NOT_NAMED 1904-08-15 09:00:00 NR 22.4511 123.862 main 264 245 __________P___ -1 22.4511 123.862 4 11 352
1904228N20124 1904 27 WP MM NOT_NAMED 1904-08-15 12:00:00 NR 22.9838 123.784 main 245 214 __________P___ -1 22.9838 123.784 4 11 353
1904228N20124 1904 27 WP MM NOT_NAMED 1904-08-15 15:00:00 NR 23.5213 123.718 main 214 203 __________P___ -1 23.5213 123.718 4 11 353
1904228N20124 1904 27 WP MM NOT_NAMED 1904-08-15 16:00:00 NR 23.7000 123.700 main 203 187 __________O___ -1 23.7000 123.700 4 11 357
1904228N20124 1904 27 WP MM NOT_NAMED 1904-08-15 18:00:00 NR 24.0631 123.672 main 187 167 __________P___ -1 24.0631 123.672 4 11 356
1904228N20124 1904 27 WP MM NOT_NAMED 1904-08-15 21:00:00 NR 24.6080 123.642 main 167 161 __________P___ -1 24.6080 123.642 4 11 358
1904228N20124 1904 27 WP MM NOT_NAMED 1904-08-16 00:00:00 NR 25.1395 123.622 main 161 162 __________P___ -1 25.1395 123.622 4 10 357
1904228N20124 1904 27 WP MM NOT_NAMED 1904-08-16 03:00:00 NR 25.6418 123.606 main 174 178 __________P___ -1 25.6418 123.606 4 10 358
1904228N20124 1904 27 WP MM NOT_NAMED 1904-08-16 04:00:00 NR 25.8000 123.600 main 183 183 __________O___ -1 25.8000 123.600 4 9 0
1904228N20124 1904 27 WP MM NOT_NAMED 1904-08-16 06:00:00 NR 26.0952 123.578 main 202 202 __________P___ -1 26.0952 123.578 4 9 355
1904228N20124 1904 27 WP MM NOT_NAMED 1904-08-16 09:00:00 NR 26.5064 123.545 main 224 224 __________P___ -1 26.5064 123.545 4 8 356
1904228N20124 1904 27 WP MM NOT_NAMED 1904-08-16 12:00:00 NR 26.8938 123.518 main 243 217 __________P___ -1 26.8938 123.518 4 8 357
1904228N20124 1904 27 WP MM NOT_NAMED 1904-08-16 15:00:00 NR 27.2728 123.502 main 217 211 __________P___ -1 27.2728 123.502 4 8 358
1904228N20124 1904 27 WP MM NOT_NAMED 1904-08-16 16:00:00 NR 27.4000 123.500 main 211 198 __________O___ -1 27.4000 123.500 4 8 2
1904228N20124 1904 27 WP MM NOT_NAMED 1904-08-16 18:00:00 NR 27.6582 123.503 main 198 187 __________P___ -1 27.6582 123.503 4 8 0
1904228N20124 1904 27 WP MM NOT_NAMED 1904-08-16 21:00:00 NR 28.0539 123.521 main 187 171 __________P___ -1 28.0539 123.521 4 8 2
1904228N20124 1904 27 WP MM NOT_NAMED 1904-08-17 00:00:00 NR 28.4568 123.550 main 174 158 __________P___ -1 28.4568 123.550 4 8 4
1904228N20124 1904 27 WP MM NOT_NAMED 1904-08-17 03:00:00 NR 28.8639 123.587 main 158 156 __________P___ -1 28.8639 123.587 4 8 3
1904228N20124 1904 27 WP MM NOT_NAMED 1904-08-17 04:00:00 NR 29.0000 123.600 main 156 __________O___ -1 29.0000 123.600 4 8 7

Digital Typhoon Data and Search

About IBTrACS Database

This database is a web-friendly format of International Best Track Archive for Climate Stewardship (IBTrACS), a global best track data archive curated by NOAA dating back to 1842.

Updated: 2021-11-26